sensor_id;sensor_type;location;lat;lon;timestamp;temperature;humidity
78647;DHT22;67961;43.460;3.762;2023-04-25T00:01:11;16.20;60.50
78647;DHT22;67961;43.460;3.762;2023-04-25T00:03:39;16.20;60.40
78647;DHT22;67961;43.460;3.762;2023-04-25T00:06:05;16.20;60.40
78647;DHT22;67961;43.460;3.762;2023-04-25T00:08:32;16.20;60.40
78647;DHT22;67961;43.460;3.762;2023-04-25T00:10:58;16.20;60.60
78647;DHT22;67961;43.460;3.762;2023-04-25T00:13:24;16.20;60.40
78647;DHT22;67961;43.460;3.762;2023-04-25T00:15:51;16.20;60.60
78647;DHT22;67961;43.460;3.762;2023-04-25T00:18:21;16.20;60.70
78647;DHT22;67961;43.460;3.762;2023-04-25T00:20:47;16.20;60.80
78647;DHT22;67961;43.460;3.762;2023-04-25T00:23:14;16.20;60.70
78647;DHT22;67961;43.460;3.762;2023-04-25T00:25:47;16.20;60.80
78647;DHT22;67961;43.460;3.762;2023-04-25T00:28:13;16.20;61.00
78647;DHT22;67961;43.460;3.762;2023-04-25T00:30:39;16.20;61.20
78647;DHT22;67961;43.460;3.762;2023-04-25T00:33:05;16.20;61.10
78647;DHT22;67961;43.460;3.762;2023-04-25T00:35:31;16.10;61.20
78647;DHT22;67961;43.460;3.762;2023-04-25T00:37:57;16.10;61.30
78647;DHT22;67961;43.460;3.762;2023-04-25T00:40:23;16.10;61.30
78647;DHT22;67961;43.460;3.762;2023-04-25T00:42:49;16.10;61.50
78647;DHT22;67961;43.460;3.762;2023-04-25T00:45:17;16.10;61.60
78647;DHT22;67961;43.460;3.762;2023-04-25T00:47:43;16.10;61.60
78647;DHT22;67961;43.460;3.762;2023-04-25T00:50:09;16.10;61.70
78647;DHT22;67961;43.460;3.762;2023-04-25T00:52:37;16.10;61.60
78647;DHT22;67961;43.460;3.762;2023-04-25T00:55:05;16.10;61.80
78647;DHT22;67961;43.460;3.762;2023-04-25T00:57:30;16.10;62.10
78647;DHT22;67961;43.460;3.762;2023-04-25T00:59:56;16.10;62.10
78647;DHT22;67961;43.460;3.762;2023-04-25T01:02:23;16.10;62.10
78647;DHT22;67961;43.460;3.762;2023-04-25T01:04:49;16.10;62.20
78647;DHT22;67961;43.460;3.762;2023-04-25T01:07:14;16.10;62.20
78647;DHT22;67961;43.460;3.762;2023-04-25T01:09:41;16.10;62.20
78647;DHT22;67961;43.460;3.762;2023-04-25T01:12:07;16.10;62.20
78647;DHT22;67961;43.460;3.762;2023-04-25T01:14:32;16.10;62.50
78647;DHT22;67961;43.460;3.762;2023-04-25T01:16:58;16.10;62.40
78647;DHT22;67961;43.460;3.762;2023-04-25T01:19:24;16.10;62.50
78647;DHT22;67961;43.460;3.762;2023-04-25T01:21:50;16.10;62.60
78647;DHT22;67961;43.460;3.762;2023-04-25T01:24:17;16.10;62.70
78647;DHT22;67961;43.460;3.762;2023-04-25T01:26:43;16.10;62.80
78647;DHT22;67961;43.460;3.762;2023-04-25T01:29:19;16.10;62.70
78647;DHT22;67961;43.460;3.762;2023-04-25T01:31:46;16.00;62.90
78647;DHT22;67961;43.460;3.762;2023-04-25T01:34:14;16.00;62.80
78647;DHT22;67961;43.460;3.762;2023-04-25T01:36:40;16.00;62.80
78647;DHT22;67961;43.460;3.762;2023-04-25T01:39:07;16.00;63.00
78647;DHT22;67961;43.460;3.762;2023-04-25T01:41:33;16.00;63.00
78647;DHT22;67961;43.460;3.762;2023-04-25T01:44:00;16.00;63.20
78647;DHT22;67961;43.460;3.762;2023-04-25T01:46:26;16.00;63.20
78647;DHT22;67961;43.460;3.762;2023-04-25T01:48:52;16.00;63.20
78647;DHT22;67961;43.460;3.762;2023-04-25T01:51:17;16.00;63.20
78647;DHT22;67961;43.460;3.762;2023-04-25T01:53:43;16.00;63.30
78647;DHT22;67961;43.460;3.762;2023-04-25T01:56:09;16.00;63.50
78647;DHT22;67961;43.460;3.762;2023-04-25T01:58:35;16.00;63.70
78647;DHT22;67961;43.460;3.762;2023-04-25T02:01:01;16.00;63.60
78647;DHT22;67961;43.460;3.762;2023-04-25T02:03:26;16.00;63.60
78647;DHT22;67961;43.460;3.762;2023-04-25T02:05:52;16.00;63.70
78647;DHT22;67961;43.460;3.762;2023-04-25T02:08:18;16.00;63.80
78647;DHT22;67961;43.460;3.762;2023-04-25T02:10:44;16.00;63.70
78647;DHT22;67961;43.460;3.762;2023-04-25T02:13:09;16.00;63.90
78647;DHT22;67961;43.460;3.762;2023-04-25T02:15:35;16.00;63.80
78647;DHT22;67961;43.460;3.762;2023-04-25T02:18:01;16.00;64.00
78647;DHT22;67961;43.460;3.762;2023-04-25T02:20:29;16.00;64.00
78647;DHT22;67961;43.460;3.762;2023-04-25T02:22:56;16.00;64.10
78647;DHT22;67961;43.460;3.762;2023-04-25T02:25:21;16.00;64.30
78647;DHT22;67961;43.460;3.762;2023-04-25T02:27:48;15.90;64.10
78647;DHT22;67961;43.460;3.762;2023-04-25T02:30:14;15.90;64.40
78647;DHT22;67961;43.460;3.762;2023-04-25T02:32:40;15.90;64.30
78647;DHT22;67961;43.460;3.762;2023-04-25T02:35:06;15.90;64.30
78647;DHT22;67961;43.460;3.762;2023-04-25T02:37:37;15.80;64.60
78647;DHT22;67961;43.460;3.762;2023-04-25T02:40:03;15.80;64.60
78647;DHT22;67961;43.460;3.762;2023-04-25T02:42:29;15.80;64.70
78647;DHT22;67961;43.460;3.762;2023-04-25T02:44:55;15.80;64.60
78647;DHT22;67961;43.460;3.762;2023-04-25T02:47:21;15.80;64.70
78647;DHT22;67961;43.460;3.762;2023-04-25T02:49:46;15.80;64.70
78647;DHT22;67961;43.460;3.762;2023-04-25T02:52:12;15.80;64.80
78647;DHT22;67961;43.460;3.762;2023-04-25T02:54:39;15.80;64.80
78647;DHT22;67961;43.460;3.762;2023-04-25T02:57:05;15.70;64.80
78647;DHT22;67961;43.460;3.762;2023-04-25T02:59:31;15.70;65.00
78647;DHT22;67961;43.460;3.762;2023-04-25T03:01:56;15.70;65.00
78647;DHT22;67961;43.460;3.762;2023-04-25T03:04:22;15.60;65.00
78647;DHT22;67961;43.460;3.762;2023-04-25T03:06:49;15.60;65.00
78647;DHT22;67961;43.460;3.762;2023-04-25T03:09:15;15.60;65.00
78647;DHT22;67961;43.460;3.762;2023-04-25T03:11:41;15.60;65.10
78647;DHT22;67961;43.460;3.762;2023-04-25T03:14:07;15.60;65.20
78647;DHT22;67961;43.460;3.762;2023-04-25T03:16:33;15.60;65.10
78647;DHT22;67961;43.460;3.762;2023-04-25T03:18:59;15.60;65.00
78647;DHT22;67961;43.460;3.762;2023-04-25T03:21:24;15.50;64.90
78647;DHT22;67961;43.460;3.762;2023-04-25T03:23:50;15.50;65.10
78647;DHT22;67961;43.460;3.762;2023-04-25T03:26:16;15.50;65.00
78647;DHT22;67961;43.460;3.762;2023-04-25T03:28:41;15.40;65.00
78647;DHT22;67961;43.460;3.762;2023-04-25T03:31:07;15.40;65.10
78647;DHT22;67961;43.460;3.762;2023-04-25T03:33:33;15.40;65.20
78647;DHT22;67961;43.460;3.762;2023-04-25T03:35:58;15.40;65.00
78647;DHT22;67961;43.460;3.762;2023-04-25T03:38:24;15.40;64.90
78647;DHT22;67961;43.460;3.762;2023-04-25T03:40:52;15.40;64.90
78647;DHT22;67961;43.460;3.762;2023-04-25T03:43:18;15.30;65.00
78647;DHT22;67961;43.460;3.762;2023-04-25T03:45:47;15.30;64.80
78647;DHT22;67961;43.460;3.762;2023-04-25T03:48:12;15.30;65.00
78647;DHT22;67961;43.460;3.762;2023-04-25T03:50:38;15.30;65.10
78647;DHT22;67961;43.460;3.762;2023-04-25T03:53:03;15.30;65.00
78647;DHT22;67961;43.460;3.762;2023-04-25T03:55:29;15.30;64.70
78647;DHT22;67961;43.460;3.762;2023-04-25T03:57:55;15.20;64.80
78647;DHT22;67961;43.460;3.762;2023-04-25T04:00:20;15.20;64.70
78647;DHT22;67961;43.460;3.762;2023-04-25T04:02:46;15.20;64.70
78647;DHT22;67961;43.460;3.762;2023-04-25T04:05:12;15.20;64.60
78647;DHT22;67961;43.460;3.762;2023-04-25T04:07:37;15.20;64.50
78647;DHT22;67961;43.460;3.762;2023-04-25T04:10:11;15.20;64.30
78647;DHT22;67961;43.460;3.762;2023-04-25T04:12:38;15.20;64.30
78647;DHT22;67961;43.460;3.762;2023-04-25T04:15:04;15.20;64.20
78647;DHT22;67961;43.460;3.762;2023-04-25T04:17:31;15.20;64.20
78647;DHT22;67961;43.460;3.762;2023-04-25T04:19:57;15.20;64.10
78647;DHT22;67961;43.460;3.762;2023-04-25T04:22:23;15.20;64.10
78647;DHT22;67961;43.460;3.762;2023-04-25T04:24:49;15.10;64.10
78647;DHT22;67961;43.460;3.762;2023-04-25T04:27:16;15.10;64.20
78647;DHT22;67961;43.460;3.762;2023-04-25T04:29:43;15.10;64.10
78647;DHT22;67961;43.460;3.762;2023-04-25T04:32:09;15.00;64.10
78647;DHT22;67961;43.460;3.762;2023-04-25T04:34:35;15.00;64.00
78647;DHT22;67961;43.460;3.762;2023-04-25T04:37:01;15.00;64.10
78647;DHT22;67961;43.460;3.762;2023-04-25T04:39:27;15.00;64.00
78647;DHT22;67961;43.460;3.762;2023-04-25T04:41:53;15.00;64.10
78647;DHT22;67961;43.460;3.762;2023-04-25T04:44:19;15.00;64.10
78647;DHT22;67961;43.460;3.762;2023-04-25T04:46:45;15.00;64.00
78647;DHT22;67961;43.460;3.762;2023-04-25T04:49:12;15.00;64.00
78647;DHT22;67961;43.460;3.762;2023-04-25T04:51:39;15.00;64.10
78647;DHT22;67961;43.460;3.762;2023-04-25T04:54:10;15.00;64.30
78647;DHT22;67961;43.460;3.762;2023-04-25T04:56:35;15.00;64.40
78647;DHT22;67961;43.460;3.762;2023-04-25T04:59:01;15.00;64.30
78647;DHT22;67961;43.460;3.762;2023-04-25T05:01:28;15.00;64.30
78647;DHT22;67961;43.460;3.762;2023-04-25T05:03:55;15.10;64.40
78647;DHT22;67961;43.460;3.762;2023-04-25T05:06:26;15.10;64.40
78647;DHT22;67961;43.460;3.762;2023-04-25T05:08:54;15.30;64.20
78647;DHT22;67961;43.460;3.762;2023-04-25T05:11:21;15.40;63.80
78647;DHT22;67961;43.460;3.762;2023-04-25T05:13:46;15.40;64.00
78647;DHT22;67961;43.460;3.762;2023-04-25T05:16:13;15.30;64.20
78647;DHT22;67961;43.460;3.762;2023-04-25T05:18:41;15.30;64.40
78647;DHT22;67961;43.460;3.762;2023-04-25T05:21:07;15.30;64.60
78647;DHT22;67961;43.460;3.762;2023-04-25T05:23:33;15.30;64.70
78647;DHT22;67961;43.460;3.762;2023-04-25T05:25:59;15.40;64.60
78647;DHT22;67961;43.460;3.762;2023-04-25T05:28:24;15.40;64.70
78647;DHT22;67961;43.460;3.762;2023-04-25T05:30:50;15.40;64.60
78647;DHT22;67961;43.460;3.762;2023-04-25T05:33:16;15.50;64.40
78647;DHT22;67961;43.460;3.762;2023-04-25T05:35:42;15.60;64.60
78647;DHT22;67961;43.460;3.762;2023-04-25T05:38:08;15.60;64.40
78647;DHT22;67961;43.460;3.762;2023-04-25T05:40:33;15.60;64.40
78647;DHT22;67961;43.460;3.762;2023-04-25T05:42:59;15.70;64.50
78647;DHT22;67961;43.460;3.762;2023-04-25T05:45:25;15.80;64.40
78647;DHT22;67961;43.460;3.762;2023-04-25T05:47:51;15.80;64.00
78647;DHT22;67961;43.460;3.762;2023-04-25T05:50:16;15.90;64.00
78647;DHT22;67961;43.460;3.762;2023-04-25T05:52:42;16.00;63.80
78647;DHT22;67961;43.460;3.762;2023-04-25T05:55:08;16.10;63.60
78647;DHT22;67961;43.460;3.762;2023-04-25T05:57:34;16.20;63.40
78647;DHT22;67961;43.460;3.762;2023-04-25T05:59:59;16.30;63.30
78647;DHT22;67961;43.460;3.762;2023-04-25T06:02:25;16.40;63.30
78647;DHT22;67961;43.460;3.762;2023-04-25T06:04:52;16.40;63.10
78647;DHT22;67961;43.460;3.762;2023-04-25T06:07:18;16.40;63.20
78647;DHT22;67961;43.460;3.762;2023-04-25T06:09:44;16.30;63.30
78647;DHT22;67961;43.460;3.762;2023-04-25T06:12:10;16.20;63.40
78647;DHT22;67961;43.460;3.762;2023-04-25T06:14:36;16.10;63.50
78647;DHT22;67961;43.460;3.762;2023-04-25T06:17:02;16.10;63.60
78647;DHT22;67961;43.460;3.762;2023-04-25T06:19:35;16.10;63.60
78647;DHT22;67961;43.460;3.762;2023-04-25T06:22:01;16.10;63.70
78647;DHT22;67961;43.460;3.762;2023-04-25T06:24:28;16.10;63.70
78647;DHT22;67961;43.460;3.762;2023-04-25T06:26:54;16.10;63.70
78647;DHT22;67961;43.460;3.762;2023-04-25T06:29:20;16.10;64.00
78647;DHT22;67961;43.460;3.762;2023-04-25T06:31:45;16.20;63.50
78647;DHT22;67961;43.460;3.762;2023-04-25T06:34:11;16.40;63.00
78647;DHT22;67961;43.460;3.762;2023-04-25T06:36:37;16.50;62.80
78647;DHT22;67961;43.460;3.762;2023-04-25T06:39:02;16.60;62.90
78647;DHT22;67961;43.460;3.762;2023-04-25T06:41:28;16.70;62.60
78647;DHT22;67961;43.460;3.762;2023-04-25T06:43:54;16.80;62.60
78647;DHT22;67961;43.460;3.762;2023-04-25T06:46:20;17.00;62.10
78647;DHT22;67961;43.460;3.762;2023-04-25T06:48:45;17.10;61.60
78647;DHT22;67961;43.460;3.762;2023-04-25T06:51:11;17.20;61.20
78647;DHT22;67961;43.460;3.762;2023-04-25T06:53:38;17.20;61.10
78647;DHT22;67961;43.460;3.762;2023-04-25T06:56:04;17.20;61.00
78647;DHT22;67961;43.460;3.762;2023-04-25T06:58:30;17.20;61.00
78647;DHT22;67961;43.460;3.762;2023-04-25T07:00:56;17.00;61.50
78647;DHT22;67961;43.460;3.762;2023-04-25T07:03:21;17.20;61.20
78647;DHT22;67961;43.460;3.762;2023-04-25T07:05:47;17.20;61.00
78647;DHT22;67961;43.460;3.762;2023-04-25T07:08:12;17.40;61.00
78647;DHT22;67961;43.460;3.762;2023-04-25T07:10:38;17.50;61.00
78647;DHT22;67961;43.460;3.762;2023-04-25T07:13:04;17.70;60.80
78647;DHT22;67961;43.460;3.762;2023-04-25T07:15:29;17.70;60.50
78647;DHT22;67961;43.460;3.762;2023-04-25T07:17:55;17.70;60.70
78647;DHT22;67961;43.460;3.762;2023-04-25T07:20:21;17.80;60.50
78647;DHT22;67961;43.460;3.762;2023-04-25T07:22:46;17.80;60.50
78647;DHT22;67961;43.460;3.762;2023-04-25T07:25:12;17.90;60.20
78647;DHT22;67961;43.460;3.762;2023-04-25T07:27:38;17.80;59.90
78647;DHT22;67961;43.460;3.762;2023-04-25T07:30:05;17.80;60.30
78647;DHT22;67961;43.460;3.762;2023-04-25T07:32:30;17.70;60.70
78647;DHT22;67961;43.460;3.762;2023-04-25T07:34:56;17.50;60.30
78647;DHT22;67961;43.460;3.762;2023-04-25T07:37:23;17.50;60.30
78647;DHT22;67961;43.460;3.762;2023-04-25T07:39:48;17.40;60.50
78647;DHT22;67961;43.460;3.762;2023-04-25T07:42:14;17.40;60.80
78647;DHT22;67961;43.460;3.762;2023-04-25T07:44:40;17.40;60.90
78647;DHT22;67961;43.460;3.762;2023-04-25T07:47:07;17.40;61.10
78647;DHT22;67961;43.460;3.762;2023-04-25T07:49:34;17.40;61.10
78647;DHT22;67961;43.460;3.762;2023-04-25T07:52:01;17.40;61.10
78647;DHT22;67961;43.460;3.762;2023-04-25T07:54:27;17.50;60.80
78647;DHT22;67961;43.460;3.762;2023-04-25T07:56:53;17.60;60.20
78647;DHT22;67961;43.460;3.762;2023-04-25T07:59:18;17.70;60.40
78647;DHT22;67961;43.460;3.762;2023-04-25T08:01:44;17.80;59.70
78647;DHT22;67961;43.460;3.762;2023-04-25T08:04:10;17.80;59.30
78647;DHT22;67961;43.460;3.762;2023-04-25T08:06:35;17.80;59.50
78647;DHT22;67961;43.460;3.762;2023-04-25T08:09:02;17.80;59.50
78647;DHT22;67961;43.460;3.762;2023-04-25T08:11:28;17.80;59.70
78647;DHT22;67961;43.460;3.762;2023-04-25T08:13:54;17.70;59.10
78647;DHT22;67961;43.460;3.762;2023-04-25T08:16:20;17.60;59.40
78647;DHT22;67961;43.460;3.762;2023-04-25T08:18:45;17.70;59.60
78647;DHT22;67961;43.460;3.762;2023-04-25T08:21:11;17.80;59.30
78647;DHT22;67961;43.460;3.762;2023-04-25T08:23:38;17.80;59.40
78647;DHT22;67961;43.460;3.762;2023-04-25T08:26:03;18.00;58.90
78647;DHT22;67961;43.460;3.762;2023-04-25T08:28:30;18.20;58.40
78647;DHT22;67961;43.460;3.762;2023-04-25T08:30:56;18.30;57.90
78647;DHT22;67961;43.460;3.762;2023-04-25T08:33:22;18.30;58.60
78647;DHT22;67961;43.460;3.762;2023-04-25T08:35:48;18.30;58.70
78647;DHT22;67961;43.460;3.762;2023-04-25T08:38:14;18.20;57.80
78647;DHT22;67961;43.460;3.762;2023-04-25T08:40:40;18.30;58.20
78647;DHT22;67961;43.460;3.762;2023-04-25T08:43:07;18.40;57.70
78647;DHT22;67961;43.460;3.762;2023-04-25T08:45:39;18.60;57.50
78647;DHT22;67961;43.460;3.762;2023-04-25T08:48:11;19.10;56.60
78647;DHT22;67961;43.460;3.762;2023-04-25T08:50:45;19.30;55.50
78647;DHT22;67961;43.460;3.762;2023-04-25T08:53:15;19.20;55.40
78647;DHT22;67961;43.460;3.762;2023-04-25T08:55:44;19.00;56.50
78647;DHT22;67961;43.460;3.762;2023-04-25T08:58:11;19.00;56.90
78647;DHT22;67961;43.460;3.762;2023-04-25T09:00:37;18.90;56.80
78647;DHT22;67961;43.460;3.762;2023-04-25T09:03:03;18.80;57.10
78647;DHT22;67961;43.460;3.762;2023-04-25T09:05:29;18.80;56.90
78647;DHT22;67961;43.460;3.762;2023-04-25T09:07:55;18.60;56.50
78647;DHT22;67961;43.460;3.762;2023-04-25T09:10:22;18.60;56.80
78647;DHT22;67961;43.460;3.762;2023-04-25T09:13:08;18.70;56.80
78647;DHT22;67961;43.460;3.762;2023-04-25T09:15:48;18.70;55.90
78647;DHT22;67961;43.460;3.762;2023-04-25T09:18:42;18.60;55.80
78647;DHT22;67961;43.460;3.762;2023-04-25T09:21:10;18.60;55.70
78647;DHT22;67961;43.460;3.762;2023-04-25T09:23:41;18.40;56.20
78647;DHT22;67961;43.460;3.762;2023-04-25T09:26:07;18.30;56.60
78647;DHT22;67961;43.460;3.762;2023-04-25T09:28:34;18.20;55.90
78647;DHT22;67961;43.460;3.762;2023-04-25T09:31:01;18.20;56.10
78647;DHT22;67961;43.460;3.762;2023-04-25T09:33:32;18.30;56.30
78647;DHT22;67961;43.460;3.762;2023-04-25T09:36:16;18.30;56.50
78647;DHT22;67961;43.460;3.762;2023-04-25T09:38:46;18.30;56.10
78647;DHT22;67961;43.460;3.762;2023-04-25T09:41:12;18.30;56.20
78647;DHT22;67961;43.460;3.762;2023-04-25T09:43:38;18.10;55.80
78647;DHT22;67961;43.460;3.762;2023-04-25T09:46:11;18.10;56.20
78647;DHT22;67961;43.460;3.762;2023-04-25T09:48:37;18.30;56.20
78647;DHT22;67961;43.460;3.762;2023-04-25T09:53:28;18.20;56.30
78647;DHT22;67961;43.460;3.762;2023-04-25T09:55:55;18.50;56.70
78647;DHT22;67961;43.460;3.762;2023-04-25T09:58:24;18.70;55.90
78647;DHT22;67961;43.460;3.762;2023-04-25T10:00:51;18.80;55.80
78647;DHT22;67961;43.460;3.762;2023-04-25T10:03:17;18.80;56.00
78647;DHT22;67961;43.460;3.762;2023-04-25T10:05:43;18.80;55.60
78647;DHT22;67961;43.460;3.762;2023-04-25T10:08:10;18.80;55.50
78647;DHT22;67961;43.460;3.762;2023-04-25T10:10:38;18.90;56.70
78647;DHT22;67961;43.460;3.762;2023-04-25T10:13:05;18.90;55.70
78647;DHT22;67961;43.460;3.762;2023-04-25T10:15:34;18.80;55.40
78647;DHT22;67961;43.460;3.762;2023-04-25T10:18:01;18.80;55.10
78647;DHT22;67961;43.460;3.762;2023-04-25T10:20:28;18.90;54.50
78647;DHT22;67961;43.460;3.762;2023-04-25T10:22:57;19.10;54.50
78647;DHT22;67961;43.460;3.762;2023-04-25T10:25:23;19.20;54.20
78647;DHT22;67961;43.460;3.762;2023-04-25T10:27:53;19.40;54.40
78647;DHT22;67961;43.460;3.762;2023-04-25T10:30:19;19.60;53.50
78647;DHT22;67961;43.460;3.762;2023-04-25T10:32:45;19.80;53.30
78647;DHT22;67961;43.460;3.762;2023-04-25T10:40:23;20.60;52.10
78647;DHT22;67961;43.460;3.762;2023-04-25T10:42:51;20.80;51.70
78647;DHT22;67961;43.460;3.762;2023-04-25T10:45:17;21.10;51.10
78647;DHT22;67961;43.460;3.762;2023-04-25T10:47:45;21.50;50.70
78647;DHT22;67961;43.460;3.762;2023-04-25T10:50:14;21.80;50.30
78647;DHT22;67961;43.460;3.762;2023-04-25T10:52:41;21.90;49.50
78647;DHT22;67961;43.460;3.762;2023-04-25T10:55:07;22.00;49.70
78647;DHT22;67961;43.460;3.762;2023-04-25T10:57:40;22.50;49.50
78647;DHT22;67961;43.460;3.762;2023-04-25T11:00:12;22.50;48.70
78647;DHT22;67961;43.460;3.762;2023-04-25T11:02:59;22.70;48.90
78647;DHT22;67961;43.460;3.762;2023-04-25T11:05:34;22.70;48.90
78647;DHT22;67961;43.460;3.762;2023-04-25T11:08:00;22.70;49.80
78647;DHT22;67961;43.460;3.762;2023-04-25T11:10:27;22.40;49.10
78647;DHT22;67961;43.460;3.762;2023-04-25T11:12:53;22.20;50.00
78647;DHT22;67961;43.460;3.762;2023-04-25T11:15:19;22.10;49.70
78647;DHT22;67961;43.460;3.762;2023-04-25T11:17:45;22.00;49.70
78647;DHT22;67961;43.460;3.762;2023-04-25T11:20:12;22.10;49.90
78647;DHT22;67961;43.460;3.762;2023-04-25T11:22:39;22.20;48.70
78647;DHT22;67961;43.460;3.762;2023-04-25T11:25:09;22.10;49.70
78647;DHT22;67961;43.460;3.762;2023-04-25T11:27:54;22.00;50.00
78647;DHT22;67961;43.460;3.762;2023-04-25T11:30:20;22.00;49.00
78647;DHT22;67961;43.460;3.762;2023-04-25T11:32:47;21.90;49.50
78647;DHT22;67961;43.460;3.762;2023-04-25T11:35:13;21.70;49.70
78647;DHT22;67961;43.460;3.762;2023-04-25T11:37:39;21.60;50.00
78647;DHT22;67961;43.460;3.762;2023-04-25T11:40:07;21.50;50.60
78647;DHT22;67961;43.460;3.762;2023-04-25T11:42:34;21.50;51.50
78647;DHT22;67961;43.460;3.762;2023-04-25T11:45:04;21.40;51.20
78647;DHT22;67961;43.460;3.762;2023-04-25T11:47:33;21.40;52.10
78647;DHT22;67961;43.460;3.762;2023-04-25T11:50:00;21.30;51.50
78647;DHT22;67961;43.460;3.762;2023-04-25T11:52:45;21.10;51.70
78647;DHT22;67961;43.460;3.762;2023-04-25T11:55:19;21.10;51.40
78647;DHT22;67961;43.460;3.762;2023-04-25T11:57:47;21.50;50.30
78647;DHT22;67961;43.460;3.762;2023-04-25T12:00:16;21.70;50.10
78647;DHT22;67961;43.460;3.762;2023-04-25T12:02:44;21.90;49.70
78647;DHT22;67961;43.460;3.762;2023-04-25T12:05:11;22.00;49.70
78647;DHT22;67961;43.460;3.762;2023-04-25T12:07:37;22.10;49.60
78647;DHT22;67961;43.460;3.762;2023-04-25T12:10:07;22.30;49.80
78647;DHT22;67961;43.460;3.762;2023-04-25T12:12:35;22.30;49.20
78647;DHT22;67961;43.460;3.762;2023-04-25T12:15:14;22.10;49.00
78647;DHT22;67961;43.460;3.762;2023-04-25T12:17:42;21.90;49.20
78647;DHT22;67961;43.460;3.762;2023-04-25T12:20:09;21.80;49.70
78647;DHT22;67961;43.460;3.762;2023-04-25T12:22:35;21.70;51.10
78647;DHT22;67961;43.460;3.762;2023-04-25T12:25:02;21.60;49.70
78647;DHT22;67961;43.460;3.762;2023-04-25T12:27:31;21.40;51.50
78647;DHT22;67961;43.460;3.762;2023-04-25T12:29:57;21.30;51.20
78647;DHT22;67961;43.460;3.762;2023-04-25T12:32:23;21.10;51.50
78647;DHT22;67961;43.460;3.762;2023-04-25T12:34:49;21.10;51.20
78647;DHT22;67961;43.460;3.762;2023-04-25T12:37:15;21.20;52.30
78647;DHT22;67961;43.460;3.762;2023-04-25T12:39:41;21.30;51.00
78647;DHT22;67961;43.460;3.762;2023-04-25T12:42:06;21.40;51.20
78647;DHT22;67961;43.460;3.762;2023-04-25T12:44:37;21.40;53.00
78647;DHT22;67961;43.460;3.762;2023-04-25T12:47:03;21.30;51.20
78647;DHT22;67961;43.460;3.762;2023-04-25T12:49:29;21.20;51.20
78647;DHT22;67961;43.460;3.762;2023-04-25T12:51:55;21.20;50.80
78647;DHT22;67961;43.460;3.762;2023-04-25T12:54:20;21.20;51.70
78647;DHT22;67961;43.460;3.762;2023-04-25T12:56:46;21.40;51.30
78647;DHT22;67961;43.460;3.762;2023-04-25T12:59:12;21.50;51.10
78647;DHT22;67961;43.460;3.762;2023-04-25T13:01:38;21.50;51.20
78647;DHT22;67961;43.460;3.762;2023-04-25T13:04:04;21.40;50.50
78647;DHT22;67961;43.460;3.762;2023-04-25T13:06:29;21.30;51.80
78647;DHT22;67961;43.460;3.762;2023-04-25T13:08:56;21.10;51.10
78647;DHT22;67961;43.460;3.762;2023-04-25T13:11:21;21.10;51.60
78647;DHT22;67961;43.460;3.762;2023-04-25T13:13:47;21.00;51.60
78647;DHT22;67961;43.460;3.762;2023-04-25T13:16:13;21.00;52.50
78647;DHT22;67961;43.460;3.762;2023-04-25T13:18:39;20.90;51.10
78647;DHT22;67961;43.460;3.762;2023-04-25T13:21:05;20.90;51.40
78647;DHT22;67961;43.460;3.762;2023-04-25T13:23:31;20.90;50.20
78647;DHT22;67961;43.460;3.762;2023-04-25T13:25:57;20.90;49.80
78647;DHT22;67961;43.460;3.762;2023-04-25T13:28:24;21.00;49.70
78647;DHT22;67961;43.460;3.762;2023-04-25T13:30:53;21.00;48.50
78647;DHT22;67961;43.460;3.762;2023-04-25T13:33:19;21.00;48.90
78647;DHT22;67961;43.460;3.762;2023-04-25T13:35:46;21.00;49.50
78647;DHT22;67961;43.460;3.762;2023-04-25T13:38:12;21.00;49.10
78647;DHT22;67961;43.460;3.762;2023-04-25T13:40:38;21.00;50.20
78647;DHT22;67961;43.460;3.762;2023-04-25T13:43:04;20.90;48.90
78647;DHT22;67961;43.460;3.762;2023-04-25T13:45:32;20.90;49.50
78647;DHT22;67961;43.460;3.762;2023-04-25T13:47:57;20.80;49.10
78647;DHT22;67961;43.460;3.762;2023-04-25T13:50:23;20.60;48.60
78647;DHT22;67961;43.460;3.762;2023-04-25T13:52:48;20.50;48.80
78647;DHT22;67961;43.460;3.762;2023-04-25T13:55:14;20.50;48.90
78647;DHT22;67961;43.460;3.762;2023-04-25T13:57:40;20.50;48.50
78647;DHT22;67961;43.460;3.762;2023-04-25T14:00:08;20.50;47.80
78647;DHT22;67961;43.460;3.762;2023-04-25T14:02:36;20.50;47.00
78647;DHT22;67961;43.460;3.762;2023-04-25T14:05:03;20.60;47.10
78647;DHT22;67961;43.460;3.762;2023-04-25T14:07:29;20.70;47.20
78647;DHT22;67961;43.460;3.762;2023-04-25T14:09:56;20.70;47.30
78647;DHT22;67961;43.460;3.762;2023-04-25T14:12:23;20.80;46.80
78647;DHT22;67961;43.460;3.762;2023-04-25T14:14:48;20.80;47.40
78647;DHT22;67961;43.460;3.762;2023-04-25T14:17:14;20.80;46.70
78647;DHT22;67961;43.460;3.762;2023-04-25T14:19:40;20.80;46.30
78647;DHT22;67961;43.460;3.762;2023-04-25T14:22:09;20.70;46.60
78647;DHT22;67961;43.460;3.762;2023-04-25T14:24:34;20.70;47.50
78647;DHT22;67961;43.460;3.762;2023-04-25T14:27:00;20.60;46.80
78647;DHT22;67961;43.460;3.762;2023-04-25T14:29:26;20.70;46.20
78647;DHT22;67961;43.460;3.762;2023-04-25T14:31:52;20.70;46.40
78647;DHT22;67961;43.460;3.762;2023-04-25T14:34:19;20.80;46.80
78647;DHT22;67961;43.460;3.762;2023-04-25T14:36:45;20.90;46.90
78647;DHT22;67961;43.460;3.762;2023-04-25T14:39:11;20.90;47.40
78647;DHT22;67961;43.460;3.762;2023-04-25T14:41:37;20.80;47.30
78647;DHT22;67961;43.460;3.762;2023-04-25T14:44:03;20.80;47.30
78647;DHT22;67961;43.460;3.762;2023-04-25T14:46:29;20.70;47.60
78647;DHT22;67961;43.460;3.762;2023-04-25T14:48:55;20.70;48.00
78647;DHT22;67961;43.460;3.762;2023-04-25T14:51:21;20.60;47.90
78647;DHT22;67961;43.460;3.762;2023-04-25T14:53:47;20.60;47.60
78647;DHT22;67961;43.460;3.762;2023-04-25T14:56:12;20.50;47.90
78647;DHT22;67961;43.460;3.762;2023-04-25T14:58:39;20.50;47.30
78647;DHT22;67961;43.460;3.762;2023-04-25T15:01:05;20.50;47.50
78647;DHT22;67961;43.460;3.762;2023-04-25T15:03:32;20.50;47.80
78647;DHT22;67961;43.460;3.762;2023-04-25T15:05:58;20.50;47.60
78647;DHT22;67961;43.460;3.762;2023-04-25T15:08:24;20.40;48.20
78647;DHT22;67961;43.460;3.762;2023-04-25T15:10:49;20.30;47.90
78647;DHT22;67961;43.460;3.762;2023-04-25T15:13:17;20.30;47.70
78647;DHT22;67961;43.460;3.762;2023-04-25T15:15:43;20.30;48.00
78647;DHT22;67961;43.460;3.762;2023-04-25T15:18:08;20.30;48.60
78647;DHT22;67961;43.460;3.762;2023-04-25T15:20:34;20.20;47.20
78647;DHT22;67961;43.460;3.762;2023-04-25T15:23:01;20.20;48.00
78647;DHT22;67961;43.460;3.762;2023-04-25T15:25:28;20.10;47.60
78647;DHT22;67961;43.460;3.762;2023-04-25T15:27:54;20.10;48.20
78647;DHT22;67961;43.460;3.762;2023-04-25T15:30:20;20.10;47.50
78647;DHT22;67961;43.460;3.762;2023-04-25T15:32:46;20.10;48.40
78647;DHT22;67961;43.460;3.762;2023-04-25T15:35:13;20.10;47.60